createdAt,value
2023-04-08T00:01:14.628Z,6.87
2023-04-08T00:03:43.123Z,7.10
2023-04-08T00:06:11.573Z,7.50
2023-04-08T00:08:39.968Z,7.03
2023-04-08T00:11:09.557Z,7.43
2023-04-08T00:13:37.887Z,8.03
2023-04-08T00:16:06.287Z,6.93
2023-04-08T00:18:34.595Z,7.23
2023-04-08T00:21:02.930Z,7.23
2023-04-08T00:23:31.209Z,6.90
2023-04-08T00:25:59.525Z,7.67
2023-04-08T00:28:29.235Z,6.83
2023-04-08T00:30:58.172Z,7.23
2023-04-08T00:33:26.605Z,6.80
2023-04-08T00:35:54.960Z,5.90
2023-04-08T00:38:23.315Z,6.90
2023-04-08T00:40:51.577Z,6.60
2023-04-08T00:43:20.915Z,6.53
2023-04-08T00:45:50.706Z,6.87
2023-04-08T00:48:19.057Z,7.00
2023-04-08T00:50:47.510Z,9.30
2023-04-08T00:53:17.767Z,6.80
2023-04-08T00:55:46.335Z,8.20
2023-04-08T00:58:15.410Z,6.20
2023-04-08T01:00:45.820Z,6.30
2023-04-08T01:03:18.678Z,6.63
2023-04-08T01:05:50.555Z,5.87
2023-04-08T01:08:19.784Z,5.80
2023-04-08T01:10:50.797Z,5.90
2023-04-08T01:13:19.890Z,6.07
2023-04-08T01:15:48.211Z,7.60
2023-04-08T01:18:18.719Z,5.20
2023-04-08T01:20:47.265Z,7.40
2023-04-08T01:23:20.116Z,7.40
2023-04-08T01:25:51.365Z,6.57
2023-04-08T01:28:21.115Z,6.27
2023-04-08T01:30:49.754Z,5.30
2023-04-08T01:33:19.535Z,5.83
2023-04-08T01:35:48.144Z,5.77
2023-04-08T01:38:18.048Z,5.57
2023-04-08T01:40:46.603Z,5.80
2023-04-08T01:43:18.014Z,5.93
2023-04-08T01:45:47.231Z,6.13
2023-04-08T01:48:16.209Z,5.20
2023-04-08T01:50:45.063Z,8.60
2023-04-08T01:53:13.797Z,5.67
2023-04-08T01:55:42.871Z,6.27
2023-04-08T01:58:13.524Z,5.50
2023-04-08T02:00:44.284Z,5.87
2023-04-08T02:03:14.071Z,6.77
2023-04-08T02:05:42.517Z,5.80
2023-04-08T02:08:10.760Z,5.83
2023-04-08T02:10:39.038Z,6.80
2023-04-08T02:13:07.442Z,6.37
2023-04-08T02:15:36.477Z,5.70
2023-04-08T02:18:10.830Z,6.13
2023-04-08T02:20:40.096Z,6.63
2023-04-08T02:23:10.956Z,6.30
2023-04-08T02:25:40.492Z,6.17
2023-04-08T02:28:11.499Z,5.73
2023-04-08T02:30:42.624Z,5.70
2023-04-08T02:33:14.149Z,5.90
2023-04-08T02:35:43.103Z,7.17
2023-04-08T02:38:11.780Z,6.40
2023-04-08T02:40:40.261Z,6.53
2023-04-08T02:43:08.599Z,6.70
2023-04-08T02:45:39.890Z,6.77
2023-04-08T02:48:08.519Z,8.30
2023-04-08T02:50:39.191Z,6.80
2023-04-08T02:53:07.471Z,7.80
2023-04-08T02:55:35.773Z,6.57
2023-04-08T02:58:04.104Z,6.87
2023-04-08T03:00:32.516Z,7.40
2023-04-08T03:03:01.070Z,6.50
2023-04-08T03:05:29.571Z,5.97
2023-04-08T03:07:59.269Z,6.33
2023-04-08T03:10:27.650Z,5.97
2023-04-08T03:12:56.185Z,6.87
2023-04-08T03:15:24.560Z,6.97
2023-04-08T03:17:52.961Z,5.90
2023-04-08T03:20:21.357Z,7.23
2023-04-08T03:22:50.197Z,6.13
2023-04-08T03:25:20.024Z,5.53
2023-04-08T03:27:48.396Z,6.23
2023-04-08T03:30:16.834Z,5.97
2023-04-08T03:32:45.534Z,6.47
2023-04-08T03:35:14.113Z,6.37
2023-04-08T03:37:42.382Z,5.20
2023-04-08T03:40:11.407Z,5.87
2023-04-08T03:42:41.281Z,6.47
2023-04-08T03:45:10.095Z,6.80
2023-04-08T03:47:38.502Z,6.83
2023-04-08T03:50:07.216Z,5.70
2023-04-08T03:52:35.604Z,6.40
2023-04-08T03:55:03.953Z,6.60
2023-04-08T03:57:32.218Z,6.83
2023-04-08T04:00:01.945Z,7.37
2023-04-08T04:02:30.404Z,6.40
2023-04-08T04:04:58.783Z,6.10
2023-04-08T04:07:27.179Z,5.87
2023-04-08T04:09:57.201Z,7.30
2023-04-08T04:12:25.620Z,6.80
2023-04-08T04:14:53.991Z,7.50
2023-04-08T04:17:23.787Z,7.20
2023-04-08T04:19:52.818Z,9.40
2023-04-08T04:22:21.237Z,6.87
2023-04-08T04:24:49.749Z,7.10
2023-04-08T04:27:18.329Z,7.10
2023-04-08T04:29:46.711Z,6.30
2023-04-08T04:32:15.199Z,6.80
2023-04-08T04:34:45.387Z,8.27
2023-04-08T04:37:13.945Z,6.57
2023-04-08T04:39:42.202Z,7.40
2023-04-08T04:42:10.627Z,7.17
2023-04-08T04:44:39.058Z,7.27
2023-04-08T04:47:07.378Z,7.07
2023-04-08T04:49:35.840Z,7.00
2023-04-08T04:52:06.878Z,6.80
2023-04-08T04:54:35.180Z,8.57
2023-04-08T04:57:03.581Z,6.93
2023-04-08T04:59:32.038Z,7.40
2023-04-08T05:02:00.549Z,6.87
2023-04-08T05:04:28.867Z,7.70
2023-04-08T05:06:57.257Z,7.67
2023-04-08T05:09:26.975Z,7.00
2023-04-08T05:11:55.403Z,7.00
2023-04-08T05:14:23.833Z,7.50
2023-04-08T05:16:52.211Z,6.70
2023-04-08T05:19:20.490Z,6.83
2023-04-08T05:21:48.888Z,8.27
2023-04-08T05:24:17.175Z,7.97
2023-04-08T05:26:47.936Z,7.30
2023-04-08T05:29:16.256Z,7.07
2023-04-08T05:31:44.716Z,9.53
2023-04-08T05:34:13.066Z,7.23
2023-04-08T05:36:41.474Z,7.87
2023-04-08T05:39:09.746Z,7.83
2023-04-08T05:41:38.076Z,7.50
2023-04-08T05:44:07.986Z,7.40
2023-04-08T05:46:36.368Z,8.10
2023-04-08T05:49:04.730Z,8.03
2023-04-08T05:51:33.102Z,8.40
2023-04-08T05:54:01.486Z,7.53
2023-04-08T05:56:29.890Z,7.90
2023-04-08T05:58:58.219Z,7.97
2023-04-08T06:01:27.940Z,7.43
2023-04-08T06:03:56.932Z,7.77
2023-04-08T06:06:25.494Z,8.17
2023-04-08T06:08:54.331Z,8.10
2023-04-08T06:11:22.656Z,7.67
2023-04-08T06:13:50.966Z,7.90
2023-04-08T06:16:21.093Z,6.93
2023-04-08T06:18:51.444Z,7.50
2023-04-08T06:21:19.995Z,7.70
2023-04-08T06:23:48.348Z,7.50
2023-04-08T06:26:17.007Z,8.20
2023-04-08T06:28:45.342Z,6.97
2023-04-08T06:31:13.500Z,8.20
2023-04-08T06:33:41.814Z,7.90
2023-04-08T06:36:13.316Z,7.83
2023-04-08T06:38:41.669Z,7.80
2023-04-08T06:41:10.300Z,7.60
2023-04-08T06:43:38.619Z,7.33
2023-04-08T06:46:07.388Z,7.40
2023-04-08T06:48:37.826Z,7.00
2023-04-08T06:51:07.842Z,7.47
2023-04-08T06:53:37.701Z,7.07
2023-04-08T06:56:06.535Z,8.90
2023-04-08T06:58:34.979Z,8.47
2023-04-08T07:01:03.451Z,8.53
2023-04-08T07:03:31.897Z,8.73
2023-04-08T07:06:00.385Z,8.87
2023-04-08T07:08:29.985Z,10.47
2023-04-08T07:10:59.666Z,8.77
2023-04-08T07:13:27.978Z,9.40
2023-04-08T07:15:56.210Z,9.60
2023-04-08T07:18:24.627Z,9.17
2023-04-08T07:20:53.968Z,8.73
2023-04-08T07:23:22.322Z,9.10
2023-04-08T07:25:50.637Z,9.70
2023-04-08T07:28:20.374Z,8.60
2023-04-08T07:30:48.904Z,9.40
2023-04-08T07:33:17.256Z,10.47
2023-04-08T07:35:45.698Z,9.47
2023-04-08T07:38:14.047Z,9.17
2023-04-08T07:40:42.319Z,11.97
2023-04-08T07:43:10.769Z,12.90
2023-04-08T07:45:40.484Z,13.70
2023-04-08T07:48:09.052Z,12.93
2023-04-08T07:51:07.947Z,13.00
2023-04-08T07:53:26.781Z,13.27
2023-04-08T07:55:55.061Z,13.80
2023-04-08T07:58:24.899Z,13.67
2023-04-08T08:00:54.677Z,14.83
2023-04-08T08:03:23.187Z,15.00
2023-04-08T08:05:51.714Z,15.67
2023-04-08T08:08:20.009Z,15.33
2023-04-08T08:10:48.492Z,15.10
2023-04-08T08:13:21.164Z,17.00
2023-04-08T08:15:54.539Z,15.20
2023-04-08T08:18:24.358Z,14.50
2023-04-08T08:20:52.712Z,14.97
2023-04-08T08:23:20.998Z,15.17
2023-04-08T08:25:49.266Z,14.97
2023-04-08T08:28:17.890Z,15.50
2023-04-08T08:30:46.500Z,15.90
2023-04-08T08:33:14.649Z,16.13
2023-04-08T08:35:44.489Z,15.90
2023-04-08T08:38:13.878Z,16.20
2023-04-08T08:40:42.321Z,15.70
2023-04-08T08:43:11.322Z,15.33
2023-04-08T08:45:41.571Z,15.60
2023-04-08T08:48:10.097Z,13.73
2023-04-08T08:50:38.519Z,15.27
2023-04-08T08:53:08.176Z,15.37
2023-04-08T08:56:00.265Z,14.23
2023-04-08T08:58:27.833Z,15.23
2023-04-08T09:00:56.315Z,14.70
2023-04-08T09:03:27.708Z,15.37
2023-04-08T09:05:57.137Z,14.80
2023-04-08T09:08:27.294Z,14.83
2023-04-08T09:10:55.786Z,15.30
2023-04-08T09:13:24.869Z,14.83
2023-04-08T09:16:03.518Z,15.97
2023-04-08T09:18:31.883Z,13.40
2023-04-08T09:21:01.956Z,16.03
2023-04-08T09:23:48.708Z,14.30
2023-04-08T09:26:19.801Z,13.63
2023-04-08T09:29:02.318Z,15.43
2023-04-08T09:31:36.299Z,15.33
2023-04-08T09:34:12.528Z,15.37
2023-04-08T09:36:40.888Z,14.73
2023-04-08T09:39:09.260Z,15.80
2023-04-08T09:41:39.624Z,15.60
2023-04-08T09:44:09.344Z,15.40
2023-04-08T09:46:41.540Z,15.80
2023-04-08T09:49:12.976Z,14.80
2023-04-08T09:51:43.898Z,15.80
2023-04-08T09:54:14.902Z,15.07
2023-04-08T09:56:46.147Z,16.07
2023-04-08T09:59:17.513Z,14.97
2023-04-08T10:01:47.217Z,15.33
2023-04-08T10:04:17.728Z,14.47
2023-04-08T10:06:46.265Z,15.17
2023-04-08T10:09:14.698Z,16.97
2023-04-08T10:11:43.028Z,14.87
2023-04-08T10:14:12.743Z,14.57
2023-04-08T10:16:41.099Z,15.00
2023-04-08T10:19:38.621Z,16.37
2023-04-08T10:22:28.202Z,15.47
2023-04-08T10:25:11.406Z,14.47
2023-04-08T10:27:43.337Z,15.10
2023-04-08T10:30:40.523Z,15.47
2023-04-08T10:33:12.271Z,14.90
2023-04-08T10:35:42.920Z,15.87
2023-04-08T10:38:12.953Z,15.83
2023-04-08T10:40:42.861Z,14.93
2023-04-08T10:43:11.567Z,13.83
2023-04-08T10:45:41.764Z,15.60
2023-04-08T10:48:13.786Z,14.13
2023-04-08T10:50:42.912Z,14.47
2023-04-08T10:53:11.872Z,13.47
2023-04-08T10:55:40.229Z,14.37
2023-04-08T10:58:09.158Z,14.60
2023-04-08T11:00:38.202Z,14.73
2023-04-08T11:03:09.259Z,13.63
2023-04-08T11:05:38.144Z,15.77
2023-04-08T11:08:06.716Z,13.90
2023-04-08T11:10:38.703Z,15.13
2023-04-08T11:13:09.254Z,15.60
2023-04-08T11:15:37.796Z,14.73
2023-04-08T11:18:06.675Z,14.50
2023-04-08T11:20:37.168Z,15.17
2023-04-08T11:23:05.889Z,14.73
2023-04-08T11:25:34.215Z,16.00
2023-04-08T11:28:02.978Z,16.00
2023-04-08T11:30:31.846Z,15.83
2023-04-08T11:33:00.232Z,14.60
2023-04-08T11:35:30.919Z,15.10
2023-04-08T11:38:00.766Z,14.37
2023-04-08T11:40:29.143Z,14.80
2023-04-08T11:42:57.458Z,14.33
2023-04-08T11:45:26.137Z,15.47
2023-04-08T11:47:54.597Z,14.03
2023-04-08T11:50:26.178Z,15.57
2023-04-08T11:52:55.554Z,15.20
2023-04-08T11:55:25.941Z,16.27
2023-04-08T11:57:54.365Z,15.50
2023-04-08T12:00:23.126Z,15.20
2023-04-08T12:02:51.934Z,15.60
2023-04-08T12:05:20.441Z,16.57
2023-04-08T12:07:48.842Z,15.83
2023-04-08T12:10:17.127Z,16.00
2023-04-08T12:12:46.790Z,16.30
2023-04-08T12:15:15.138Z,14.87
2023-04-08T12:17:43.802Z,14.87
2023-04-08T12:20:12.707Z,15.57
2023-04-08T12:22:41.185Z,17.33
2023-04-08T12:25:09.714Z,16.13
2023-04-08T12:27:37.966Z,17.87
2023-04-08T12:30:08.351Z,16.20
2023-04-08T12:32:36.691Z,18.50
2023-04-08T12:35:05.398Z,19.03
2023-04-08T12:37:34.265Z,17.83
2023-04-08T12:40:02.803Z,19.37
2023-04-08T12:42:31.327Z,17.17
2023-04-08T12:44:59.556Z,18.90
2023-04-08T12:47:29.263Z,14.87
2023-04-08T12:49:57.580Z,17.53
2023-04-08T12:52:25.814Z,16.80
2023-04-08T12:54:54.137Z,17.00
2023-04-08T12:57:22.337Z,15.13
2023-04-08T12:59:51.149Z,17.83
2023-04-08T13:02:19.621Z,15.97
2023-04-08T13:04:49.768Z,16.90
2023-04-08T13:07:18.080Z,16.37
2023-04-08T13:09:46.455Z,16.60
2023-04-08T13:12:16.171Z,17.33
2023-04-08T13:14:44.542Z,17.47
2023-04-08T13:17:12.900Z,17.90
2023-04-08T13:19:41.594Z,17.63
2023-04-08T13:22:11.268Z,17.20
2023-04-08T13:24:39.593Z,17.90
2023-04-08T13:27:07.909Z,17.23
2023-04-08T13:29:36.252Z,16.47
2023-04-08T13:32:04.747Z,17.17
2023-04-08T13:34:33.083Z,15.90
2023-04-08T13:37:01.481Z,15.93
2023-04-08T13:39:31.198Z,15.17
2023-04-08T13:41:59.495Z,16.60
2023-04-08T13:44:27.805Z,17.53
2023-04-08T13:46:56.355Z,15.27
2023-04-08T13:49:24.892Z,15.07
2023-04-08T13:51:53.188Z,16.73
2023-04-08T13:54:21.437Z,15.57
2023-04-08T13:56:51.257Z,15.10
2023-04-08T13:59:19.594Z,13.97
2023-04-08T14:01:47.998Z,13.97
2023-04-08T14:04:16.442Z,12.70
2023-04-08T14:06:44.744Z,12.70
2023-04-08T14:09:13.071Z,12.53
2023-04-08T14:11:41.400Z,13.50
2023-04-08T14:14:11.115Z,13.43
2023-04-08T14:16:39.484Z,12.67
2023-04-08T14:19:07.797Z,12.40
2023-04-08T14:21:37.916Z,12.33
2023-04-08T14:24:06.704Z,12.60
2023-04-08T14:26:36.102Z,13.10
2023-04-08T14:29:05.411Z,13.10
2023-04-08T14:31:35.399Z,13.00
2023-04-08T14:34:04.154Z,12.27
2023-04-08T14:36:32.962Z,11.30
2023-04-08T14:39:01.241Z,11.90
2023-04-08T14:41:29.688Z,11.93
2023-04-08T14:43:57.961Z,11.73
2023-04-08T14:46:29.030Z,11.50
2023-04-08T14:48:58.827Z,13.27
2023-04-08T14:51:27.187Z,12.63
2023-04-08T14:53:55.687Z,12.03
2023-04-08T14:56:24.243Z,11.00
2023-04-08T14:58:52.844Z,11.97
2023-04-08T15:01:21.326Z,12.63
2023-04-08T15:03:49.763Z,11.23
2023-04-08T15:06:21.681Z,11.40
2023-04-08T15:08:50.458Z,11.63
2023-04-08T15:11:19.538Z,11.60
2023-04-08T15:13:47.859Z,10.53
2023-04-08T15:16:16.246Z,10.80
2023-04-08T15:18:44.793Z,11.50
2023-04-08T15:21:13.110Z,11.63
2023-04-08T15:23:43.550Z,11.27
2023-04-08T15:26:12.159Z,11.63
2023-04-08T15:28:40.642Z,12.03
2023-04-08T15:31:09.357Z,12.20
2023-04-08T15:33:41.207Z,10.90
2023-04-08T15:36:09.754Z,12.90
2023-04-08T15:38:38.309Z,12.40
2023-04-08T15:41:07.975Z,12.03
2023-04-08T15:43:36.909Z,12.30
2023-04-08T15:46:05.181Z,12.80
2023-04-08T15:48:33.911Z,11.80
2023-04-08T15:51:08.070Z,13.83
2023-04-08T15:53:36.691Z,15.20
2023-04-08T15:56:04.950Z,14.10
2023-04-08T15:58:34.679Z,17.33
2023-04-08T16:01:02.985Z,16.07
2023-04-08T16:03:31.854Z,14.87
2023-04-08T16:06:00.339Z,14.07
2023-04-08T16:08:29.070Z,12.87
2023-04-08T16:11:01.358Z,12.30
2023-04-08T16:13:30.118Z,12.93
2023-04-08T16:16:00.622Z,12.97
2023-04-08T16:18:29.246Z,13.70
2023-04-08T16:20:57.867Z,13.33
2023-04-08T16:23:26.308Z,14.40
2023-04-08T16:25:54.657Z,17.10
2023-04-08T16:28:23.012Z,14.13
2023-04-08T16:30:51.285Z,17.67
2023-04-08T16:33:23.910Z,17.10
2023-04-08T16:35:52.504Z,19.00
2023-04-08T16:38:20.970Z,17.00
2023-04-08T16:40:49.306Z,20.93
2023-04-08T16:43:17.660Z,31.33
2023-04-08T16:45:45.988Z,21.27
2023-04-08T16:48:14.313Z,18.07
2023-04-08T16:50:44.126Z,15.87
2023-04-08T16:53:12.475Z,17.80
2023-04-08T16:55:40.753Z,19.50
2023-04-08T16:58:08.982Z,24.77
2023-04-08T17:00:37.756Z,34.90
2023-04-08T17:03:06.344Z,21.30
2023-04-08T17:05:34.740Z,26.03
2023-04-08T17:08:05.441Z,22.30
2023-04-08T17:10:33.827Z,32.40
2023-04-08T17:13:02.099Z,29.30
2023-04-08T17:15:30.604Z,37.27
2023-04-08T17:17:58.885Z,28.97
2023-04-08T17:20:27.854Z,28.00
2023-04-08T17:22:56.253Z,19.53
2023-04-08T17:25:26.080Z,16.43
2023-04-08T17:27:54.476Z,17.23
2023-04-08T17:30:22.960Z,16.00
2023-04-08T17:32:51.464Z,17.60
2023-04-08T17:35:19.864Z,18.00
2023-04-08T17:37:48.365Z,15.47
2023-04-08T17:40:16.697Z,15.63
2023-04-08T17:42:46.681Z,18.47
2023-04-08T17:45:15.105Z,16.93
2023-04-08T17:47:44.046Z,20.60
2023-04-08T17:50:12.493Z,24.00
2023-04-08T17:52:40.801Z,21.10
2023-04-08T17:55:09.579Z,21.03
2023-04-08T17:57:38.986Z,17.50
2023-04-08T18:00:09.304Z,15.77
2023-04-08T18:02:38.198Z,17.57
2023-04-08T18:05:07.702Z,15.90
2023-04-08T18:07:36.887Z,15.60
2023-04-08T18:10:05.691Z,15.73
2023-04-08T18:12:34.043Z,15.50
2023-04-08T18:15:02.932Z,18.47
2023-04-08T18:17:32.796Z,15.67
2023-04-08T18:20:01.098Z,14.97
2023-04-08T18:22:29.440Z,16.50
2023-04-08T18:24:57.831Z,16.73
2023-04-08T18:27:26.160Z,16.57
2023-04-08T18:29:54.487Z,16.40
2023-04-08T18:32:22.862Z,15.33
2023-04-08T18:34:54.057Z,15.70
2023-04-08T18:37:22.989Z,15.60
2023-04-08T18:39:51.535Z,15.00
2023-04-08T18:42:19.861Z,15.83
2023-04-08T18:44:48.086Z,15.30
2023-04-08T18:47:17.573Z,15.40
2023-04-08T18:49:46.373Z,16.60
2023-04-08T18:52:15.985Z,16.27
2023-04-08T18:54:44.339Z,17.60
2023-04-08T18:57:12.806Z,16.23
2023-04-08T18:59:41.096Z,16.23
2023-04-08T19:02:09.500Z,17.23
2023-04-08T19:04:38.438Z,18.80
2023-04-08T19:07:06.825Z,18.17
2023-04-08T19:09:36.534Z,20.57
2023-04-08T19:12:04.888Z,19.03
2023-04-08T19:14:33.219Z,19.47
2023-04-08T19:17:01.779Z,20.40
2023-04-08T19:19:30.149Z,21.07
2023-04-08T19:21:58.347Z,21.60
2023-04-08T19:24:26.814Z,20.60
2023-04-08T19:26:56.482Z,20.60
2023-04-08T19:29:25.386Z,21.37
2023-04-08T19:31:53.820Z,19.77
2023-04-08T19:34:22.148Z,20.00
2023-04-08T19:36:50.601Z,19.87
2023-04-08T19:39:19.181Z,20.27
2023-04-08T19:41:47.592Z,19.07
2023-04-08T19:44:17.382Z,20.03
2023-04-08T19:46:45.709Z,19.97
2023-04-08T19:49:14.009Z,19.00
2023-04-08T19:51:42.300Z,18.80
2023-04-08T19:54:10.621Z,20.07
2023-04-08T19:56:38.950Z,21.20
2023-04-08T19:59:07.755Z,21.50
2023-04-08T20:01:39.233Z,19.80
2023-04-08T20:04:07.687Z,19.00
2023-04-08T20:06:36.625Z,20.63
2023-04-08T20:09:06.292Z,21.60
2023-04-08T20:11:34.763Z,21.33
2023-04-08T20:14:03.244Z,19.40
2023-04-08T20:16:31.980Z,20.90
2023-04-08T20:19:01.831Z,18.90
2023-04-08T20:21:30.124Z,18.03
2023-04-08T20:23:58.596Z,20.03
2023-04-08T20:26:27.007Z,19.17
2023-04-08T20:28:58.502Z,17.07
2023-04-08T20:31:27.870Z,18.57
2023-04-08T20:33:56.172Z,18.23
2023-04-08T20:36:25.924Z,18.57
2023-04-08T20:38:54.987Z,18.10
2023-04-08T20:41:23.990Z,18.67
2023-04-08T20:43:53.163Z,17.60
2023-04-08T20:46:22.512Z,18.27
2023-04-08T20:48:51.090Z,19.60
2023-04-08T20:51:19.505Z,15.23
2023-04-08T20:53:49.419Z,11.70
2023-04-08T20:56:17.873Z,13.00
2023-04-08T20:58:46.339Z,12.30
2023-04-08T21:01:14.750Z,12.90
2023-04-08T21:03:43.348Z,12.07
2023-04-08T21:06:17.325Z,12.40
2023-04-08T21:08:45.989Z,11.90
2023-04-08T21:11:15.946Z,11.67
2023-04-08T21:13:46.686Z,12.20
2023-04-08T21:16:17.123Z,11.67
2023-04-08T21:18:45.513Z,12.40
2023-04-08T21:21:13.864Z,12.77
2023-04-08T21:23:42.168Z,11.53
2023-04-08T21:26:12.929Z,13.40
2023-04-08T21:28:44.121Z,12.60
2023-04-08T21:31:13.207Z,11.67
2023-04-08T21:33:41.779Z,12.20
2023-04-08T21:36:10.313Z,13.37
2023-04-08T21:38:38.752Z,12.83
2023-04-08T21:41:07.084Z,12.80
2023-04-08T21:43:35.417Z,11.63
2023-04-08T21:46:05.900Z,11.40
2023-04-08T21:48:34.277Z,11.20
2023-04-08T21:51:02.907Z,12.50
2023-04-08T21:53:31.340Z,11.83
2023-04-08T21:55:59.669Z,12.57
2023-04-08T21:58:28.910Z,12.77
2023-04-08T22:00:57.199Z,12.10
2023-04-08T22:03:27.567Z,12.73
2023-04-08T22:05:56.209Z,13.13
2023-04-08T22:08:24.689Z,11.00
2023-04-08T22:10:53.132Z,8.87
2023-04-08T22:13:21.486Z,9.10
2023-04-08T22:15:49.745Z,8.63
2023-04-08T22:18:18.021Z,7.43
2023-04-08T22:20:47.722Z,9.27
2023-04-08T22:23:16.114Z,7.90
2023-04-08T22:25:44.421Z,8.63
2023-04-08T22:28:12.853Z,8.43
2023-04-08T22:30:41.162Z,10.13
2023-04-08T22:33:09.467Z,8.73
2023-04-08T22:35:37.893Z,8.83
2023-04-08T22:38:07.617Z,9.33
2023-04-08T22:40:37.320Z,9.57
2023-04-08T22:43:05.656Z,7.80
2023-04-08T22:45:33.997Z,8.30
2023-04-08T22:48:02.393Z,9.50
2023-04-08T22:50:30.832Z,7.83
2023-04-08T22:52:59.138Z,8.27
2023-04-08T22:55:28.875Z,8.63
2023-04-08T22:57:57.201Z,9.43
2023-04-08T23:00:25.601Z,8.83
2023-04-08T23:02:54.287Z,8.63
2023-04-08T23:05:22.697Z,8.87
2023-04-08T23:07:51.025Z,8.63
2023-04-08T23:10:19.398Z,8.70
2023-04-08T23:12:49.007Z,8.80
2023-04-08T23:15:17.511Z,8.80
2023-04-08T23:17:45.932Z,9.03
2023-04-08T23:20:14.553Z,9.67
2023-04-08T23:22:42.926Z,9.80
2023-04-08T23:25:11.678Z,10.57
2023-04-08T23:27:39.962Z,9.20
2023-04-08T23:30:10.407Z,10.80
2023-04-08T23:32:38.685Z,10.23
2023-04-08T23:35:07.383Z,10.30
2023-04-08T23:37:35.760Z,10.60
2023-04-08T23:40:04.049Z,9.97
2023-04-08T23:42:32.367Z,10.20
2023-04-08T23:45:00.970Z,9.70
2023-04-08T23:47:31.123Z,9.53
2023-04-08T23:49:59.623Z,9.30
2023-04-08T23:52:27.899Z,9.33
2023-04-08T23:54:56.290Z,8.70
2023-04-08T23:57:24.723Z,9.10
2023-04-08T23:59:53.073Z,8.73
